Time;durP1;ratioP1;P1;durP2;ratioP2;P2;SDS_P1;SDS_P2;PMS_P1;PMS_P2;Temp;Humidity;BMP_temperature;BMP_pressure;BME280_temperature;BME280_humidity;BME280_pressure;Samples;Min_cycle;Max_cycle;Signal;HPM_P1;HPM_P2
2022/10/16 00:02:39;;;;;;;18.87;14.83;;;;;;;16.49;100.00;100078.98;2780368;82;21047;-84
2022/10/16 00:06:40;;;;;;;23.35;15.43;;;;;;;16.62;100.00;100083.34;2869811;81;21044;-84
2022/10/16 00:10:41;;;;;;;17.25;14.63;;;;;;;16.67;100.00;100090.38;2841962;81;21060;-84
2022/10/16 00:14:43;;;;;;;16.25;14.03;;;;;;;16.70;100.00;100082.48;2854455;81;21055;-84
2022/10/16 00:18:44;;;;;;;15.50;13.60;;;;;;;16.72;100.00;100079.12;2773460;84;21055;-85
2022/10/16 00:22:46;;;;;;;14.87;11.97;;;;;;;16.64;100.00;100079.16;2833331;82;21070;-85
2022/10/16 00:26:49;;;;;;;16.45;13.08;;;;;;;16.60;100.00;100089.39;2832905;82;21141;-85
2022/10/16 00:30:50;;;;;;;15.75;13.43;;;;;;;16.57;100.00;100085.70;2851522;81;21618;-84
2022/10/16 00:34:54;;;;;;;14.23;12.73;;;;;;;16.54;100.00;100082.84;2852292;82;21124;-84
2022/10/16 00:38:59;;;;;;;15.43;13.05;;;;;;;16.48;100.00;100075.97;2849182;81;21083;-85
2022/10/16 00:42:59;;;;;;;13.77;11.57;;;;;;;16.47;100.00;100078.32;2850970;81;21094;-85
2022/10/16 00:47:01;;;;;;;17.20;13.28;;;;;;;16.48;100.00;100078.16;2855458;82;21054;-84
2022/10/16 00:51:02;;;;;;;33.60;13.90;;;;;;;16.45;100.00;100085.70;2850007;82;21059;-84
2022/10/16 00:55:06;;;;;;;13.70;11.45;;;;;;;16.48;100.00;100086.22;2853812;82;21107;-84
2022/10/16 00:59:19;;;;;;;13.72;12.20;;;;;;;16.55;100.00;100084.52;2849123;81;21045;-84
2022/10/16 01:03:32;;;;;;;11.38;9.88;;;;;;;16.61;100.00;100085.69;2848853;82;21041;-85
2022/10/16 01:07:57;;;;;;;14.73;13.18;;;;;;;16.69;100.00;100078.95;2851225;81;21006;-84
2022/10/16 01:12:06;;;;;;;12.90;10.82;;;;;;;16.72;100.00;100085.84;2854074;81;21032;-84
2022/10/16 01:16:33;;;;;;;11.43;10.23;;;;;;;16.83;100.00;100088.66;2849095;82;21633;-85
2022/10/16 01:20:43;;;;;;;12.88;11.25;;;;;;;16.93;100.00;100087.98;2862156;82;21086;-84
2022/10/16 01:24:48;;;;;;;11.55;9.40;;;;;;;16.98;100.00;100084.75;2843906;81;21036;-84
2022/10/16 01:29:01;;;;;;;10.63;9.35;;;;;;;17.08;100.00;100084.59;2819948;83;21019;-84
2022/10/16 01:33:14;;;;;;;14.47;11.33;;;;;;;17.09;100.00;100072.82;2856499;81;21027;-84
2022/10/16 01:37:20;;;;;;;12.78;10.20;;;;;;;17.16;100.00;100082.38;2861868;82;21504;-84
2022/10/16 01:41:32;;;;;;;12.73;10.70;;;;;;;17.20;100.00;100082.38;2861360;81;21097;-84
2022/10/16 01:45:36;;;;;;;13.08;11.75;;;;;;;17.25;100.00;100084.86;2817404;81;21038;-84
2022/10/16 01:49:41;;;;;;;14.07;12.25;;;;;;;17.31;100.00;100081.98;2839440;81;21050;-85
2022/10/16 01:53:46;;;;;;;14.95;11.20;;;;;;;17.36;100.00;100082.81;2717606;85;21016;-84
2022/10/16 01:57:50;;;;;;;14.85;13.30;;;;;;;17.40;100.00;100091.70;2757538;84;21571;-85
2022/10/16 02:02:01;;;;;;;14.10;12.13;;;;;;;17.38;100.00;100101.76;2828503;81;21055;-84
2022/10/16 02:06:02;;;;;;;12.98;11.40;;;;;;;17.41;100.00;100112.69;2851465;81;21095;-85
2022/10/16 02:10:04;;;;;;;12.20;10.80;;;;;;;17.47;100.00;100116.01;2852525;82;21046;-84
2022/10/16 02:14:07;;;;;;;11.30;10.03;;;;;;;17.54;100.00;100125.56;2862021;82;21028;-84
2022/10/16 02:18:10;;;;;;;13.40;11.43;;;;;;;17.61;100.00;100135.11;2815351;81;21086;-84
2022/10/16 02:22:16;;;;;;;13.18;10.18;;;;;;;17.72;100.00;100140.60;2798240;81;20973;-84
2022/10/16 02:26:28;;;;;;;13.98;12.37;;;;;;;17.82;100.00;100150.65;2850995;81;21027;-84
2022/10/16 02:30:46;;;;;;;14.68;11.12;;;;;;;17.84;100.00;100143.23;2828767;82;21015;-84
2022/10/16 02:34:49;;;;;;;12.85;10.80;;;;;;;17.81;100.00;100140.38;2849411;82;21050;-84
2022/10/16 02:38:52;;;;;;;10.75;9.48;;;;;;;17.73;100.00;100133.72;2812146;82;21051;-85
2022/10/16 02:42:55;;;;;;;11.25;10.15;;;;;;;17.63;100.00;100142.50;2844291;82;21023;-85
2022/10/16 02:46:56;;;;;;;12.60;10.60;;;;;;;17.57;100.00;100142.69;2852993;82;20984;-85
2022/10/16 02:50:57;;;;;;;12.90;10.55;;;;;;;17.56;100.00;100143.20;2744588;83;21019;-85
2022/10/16 02:54:58;;;;;;;12.23;10.78;;;;;;;17.56;100.00;100130.25;2857238;81;21023;-85
2022/10/16 02:58:59;;;;;;;13.00;9.95;;;;;;;17.44;100.00;100126.30;2847953;82;21083;-84
2022/10/16 03:03:00;;;;;;;11.28;10.18;;;;;;;17.36;100.00;100132.54;2853703;81;21039;-84
2022/10/16 03:07:02;;;;;;;13.72;11.55;;;;;;;17.35;100.00;100128.18;2869136;81;20984;-84
2022/10/16 03:11:03;;;;;;;13.85;12.05;;;;;;;17.31;100.00;100128.20;2858541;82;21053;-84
2022/10/16 03:15:04;;;;;;;12.90;10.48;;;;;;;17.17;100.00;100133.77;2828489;82;21111;-85
2022/10/16 03:19:06;;;;;;;12.15;10.60;;;;;;;17.10;100.00;100139.02;2845721;82;21605;-85
2022/10/16 03:23:08;;;;;;;10.60;9.53;;;;;;;17.06;100.00;100145.23;2816504;82;21645;-85
2022/10/16 03:27:09;;;;;;;10.38;9.08;;;;;;;17.04;100.00;100152.63;2849506;81;21776;-85
2022/10/16 03:31:10;;;;;;;10.35;8.28;;;;;;;17.02;100.00;100155.14;2846384;82;21061;-84
2022/10/16 03:35:11;;;;;;;11.50;10.08;;;;;;;16.97;100.00;100159.65;2820256;81;21069;-85
2022/10/16 03:39:12;;;;;;;7.97;7.17;;;;;;;16.99;100.00;100151.80;2849541;82;21063;-85
2022/10/16 03:43:14;;;;;;;7.80;6.87;;;;;;;16.98;100.00;100155.49;2767112;81;21039;-85
2022/10/16 03:47:15;;;;;;;6.80;5.75;;;;;;;16.99;100.00;100153.14;2855719;81;21051;-84
2022/10/16 03:51:16;;;;;;;8.85;7.15;;;;;;;17.03;100.00;100163.54;2859950;81;21042;-84
2022/10/16 03:55:17;;;;;;;8.20;6.22;;;;;;;16.98;100.00;100162.21;2828961;82;21047;-84
2022/10/16 03:59:18;;;;;;;6.42;5.83;;;;;;;17.00;100.00;100166.08;2851909;82;21070;-84
2022/10/16 04:03:19;;;;;;;6.78;6.12;;;;;;;16.96;100.00;100162.00;2850954;82;21491;-85
2022/10/16 04:07:20;;;;;;;6.97;6.20;;;;;;;16.90;100.00;100170.27;2858483;82;21597;-85
2022/10/16 04:11:22;;;;;;;7.00;6.03;;;;;;;16.83;100.00;100177.31;2848776;81;21093;-85
2022/10/16 04:15:24;;;;;;;6.08;5.45;;;;;;;16.78;100.00;100177.80;2855528;82;21125;-84
2022/10/16 04:19:26;;;;;;;5.97;5.05;;;;;;;16.79;100.00;100194.78;2861612;81;21538;-85
2022/10/16 04:23:27;;;;;;;5.20;4.67;;;;;;;16.72;100.00;100189.76;2811627;82;21059;-85
2022/10/16 04:27:28;;;;;;;4.95;4.40;;;;;;;16.67;100.00;100191.08;2829927;81;21043;-85
2022/10/16 04:31:29;;;;;;;5.58;4.62;;;;;;;16.67;100.00;100180.86;2856142;81;21032;-85
2022/10/16 04:35:30;;;;;;;4.70;4.30;;;;;;;16.63;100.00;100181.69;2848483;81;21023;-85
2022/10/16 04:39:31;;;;;;;3.62;2.90;;;;;;;16.64;100.00;100183.36;2862634;82;21566;-84
2022/10/16 04:43:33;;;;;;;3.83;3.45;;;;;;;16.65;100.00;100189.06;2854245;82;21077;-85
2022/10/16 04:47:34;;;;;;;4.80;3.60;;;;;;;16.67;100.00;100180.86;2855620;81;21101;-85
2022/10/16 04:51:36;;;;;;;2.37;2.17;;;;;;;16.62;100.00;100184.03;2870510;82;21141;-85
2022/10/16 04:55:37;;;;;;;2.83;2.47;;;;;;;16.61;100.00;100192.28;2861504;81;21074;-85
2022/10/16 04:59:38;;;;;;;3.60;2.77;;;;;;;16.57;100.00;100202.50;2824834;82;21630;-85
2022/10/16 05:03:40;;;;;;;3.87;2.58;;;;;;;16.55;100.00;100202.66;2852874;81;21097;-85
2022/10/16 05:07:41;;;;;;;2.70;2.50;;;;;;;16.58;100.00;100206.87;2852422;82;21086;-85
2022/10/16 05:11:42;;;;;;;3.35;2.02;;;;;;;16.65;100.00;100213.23;2785058;82;21090;-84
2022/10/16 05:15:48;;;;;;;2.70;2.17;;;;;;;16.73;100.00;100219.11;2861008;82;21098;-85
2022/10/16 05:19:49;;;;;;;2.22;2.02;;;;;;;16.77;100.00;100220.45;2847810;82;21069;-84
2022/10/16 05:23:50;;;;;;;2.15;1.37;;;;;;;16.76;100.00;100232.72;2844592;82;21063;-84
2022/10/16 05:27:51;;;;;;;1.87;1.67;;;;;;;16.77;100.00;100228.51;2855783;82;21046;-85
2022/10/16 05:31:53;;;;;;;2.35;2.10;;;;;;;16.78;100.00;100234.21;2846801;81;21010;-85
2022/10/16 05:35:54;;;;;;;3.22;2.62;;;;;;;16.87;100.00;100225.65;2749871;82;21107;-85
2022/10/16 05:39:55;;;;;;;1.65;1.55;;;;;;;16.96;100.00;100226.48;2847782;82;21071;-84
2022/10/16 05:43:56;;;;;;;3.58;1.72;;;;;;;16.92;100.00;100230.03;2863243;82;21071;-84
2022/10/16 05:47:57;;;;;;;1.55;1.40;;;;;;;16.90;100.00;100237.43;2814323;82;21610;-85
2022/10/16 05:51:59;;;;;;;3.02;2.37;;;;;;;16.91;100.00;100238.25;2854886;82;21098;-84
2022/10/16 05:56:01;;;;;;;5.50;3.40;;;;;;;16.93;100.00;100241.61;2849017;82;21557;-84
2022/10/16 06:00:04;;;;;;;6.10;3.52;;;;;;;16.98;100.00;100245.50;2829743;82;21071;-85
2022/10/16 06:04:05;;;;;;;2.98;2.02;;;;;;;17.04;100.00;100243.99;2858554;81;21042;-85
2022/10/16 06:08:06;;;;;;;2.77;1.98;;;;;;;17.06;100.00;100258.59;2859469;81;21018;-85
2022/10/16 06:12:07;;;;;;;3.37;2.90;;;;;;;17.22;100.00;100261.26;2853621;81;21550;-85
2022/10/16 06:16:10;;;;;;;4.05;2.00;;;;;;;17.36;100.00;100269.65;2879224;82;21079;-85
2022/10/16 06:20:11;;;;;;;3.42;2.87;;;;;;;17.49;100.00;100271.80;2842505;81;21026;-85
2022/10/16 06:24:12;;;;;;;3.12;2.92;;;;;;;17.59;100.00;100281.02;2858983;82;20974;-85
2022/10/16 06:28:15;;;;;;;4.10;3.70;;;;;;;17.73;100.00;100291.08;2855286;81;21059;-85
2022/10/16 06:32:16;;;;;;;4.33;3.92;;;;;;;17.83;100.00;100295.73;2841128;82;21074;-85
2022/10/16 06:36:18;;;;;;;4.22;3.83;;;;;;;17.77;100.00;100295.59;2861673;81;21044;-85
2022/10/16 06:40:19;;;;;;;4.42;3.98;;;;;;;17.64;100.00;100302.36;2848799;81;21039;-85
2022/10/16 06:44:20;;;;;;;6.05;5.45;;;;;;;17.63;100.00;100298.00;2841087;82;21035;-84
2022/10/16 06:48:23;;;;;;;5.30;4.80;;;;;;;17.52;100.00;100295.66;2750877;81;20979;-85
2022/10/16 06:52:24;;;;;;;4.90;4.25;;;;;;;17.53;100.00;100302.22;2843591;81;21030;-84
2022/10/16 06:56:27;;;;;;;5.90;4.65;;;;;;;17.54;100.00;100299.87;2857623;80;21047;-84
2022/10/16 07:00:28;;;;;;;6.67;5.00;;;;;;;17.66;100.00;100313.78;2849977;82;20975;-84
2022/10/16 07:04:29;;;;;;;4.47;4.08;;;;;;;17.77;100.00;100311.23;2861109;81;21035;-84
2022/10/16 07:08:37;;;;;;;4.30;3.90;;;;;;;17.98;100.00;100315.20;2857329;81;21079;-84
2022/10/16 07:12:38;;;;;;;5.87;5.28;;;;;;;18.22;100.00;100330.45;2861252;80;21043;-84
2022/10/16 07:16:39;;;;;;;4.53;4.12;;;;;;;18.41;100.00;100322.44;2833840;82;21419;-84
2022/10/16 07:20:40;;;;;;;4.22;3.58;;;;;;;18.55;100.00;100330.27;2782489;81;21019;-83
2022/10/16 07:24:41;;;;;;;4.28;3.75;;;;;;;18.64;100.00;100328.89;2868638;81;21004;-85
2022/10/16 07:28:43;;;;;;;5.22;4.55;;;;;;;18.84;100.00;100325.20;2852492;81;21034;-85
2022/10/16 07:32:44;;;;;;;5.50;3.90;;;;;;;19.06;100.00;100326.75;2858917;82;21479;-85
2022/10/16 07:36:50;;;;;;;4.53;4.15;;;;;;;19.14;100.00;100330.75;2856526;81;21689;-84
2022/10/16 07:41:05;;;;;;;6.97;4.75;;;;;;;19.22;100.00;100338.75;2851855;81;21063;-85
2022/10/16 07:45:07;;;;;;;5.40;4.60;;;;;;;19.11;99.93;100339.20;2870415;82;21012;-84
2022/10/16 07:49:09;;;;;;;6.03;5.10;;;;;;;19.11;100.00;100337.86;2860254;81;21000;-84
2022/10/16 07:53:11;;;;;;;6.22;4.53;;;;;;;19.03;99.90;100341.94;2749156;84;21072;-84
2022/10/16 07:57:18;;;;;;;6.83;5.45;;;;;;;19.01;100.00;100346.68;2735724;85;21041;-84
2022/10/16 08:01:17;;;;;;;5.42;4.92;;;;;;;19.00;100.00;100356.64;2729947;84;21125;-84
2022/10/16 08:05:19;;;;;;;9.23;5.62;;;;;;;18.97;100.00;100351.05;2846205;81;21024;-84
2022/10/16 08:09:20;;;;;;;6.42;5.92;;;;;;;18.97;100.00;100348.36;2817790;82;21044;-84
2022/10/16 08:13:22;;;;;;;6.28;5.08;;;;;;;19.14;100.00;100359.06;2871949;82;21014;-85
2022/10/16 08:17:23;;;;;;;9.50;8.50;;;;;;;19.32;100.00;100361.95;2860844;81;21002;-84
2022/10/16 08:21:24;;;;;;;6.58;5.90;;;;;;;19.45;100.00;100362.15;2867464;81;21043;-84
2022/10/16 08:25:25;;;;;;;7.92;7.08;;;;;;;19.55;100.00;100363.24;2849165;81;21047;-85
2022/10/16 08:29:26;;;;;;;6.87;6.17;;;;;;;19.62;99.61;100375.49;2865388;81;21004;-84
2022/10/16 08:33:27;;;;;;;9.63;5.75;;;;;;;19.59;98.29;100378.56;2813197;82;21050;-85
2022/10/16 08:37:32;;;;;;;7.62;6.80;;;;;;;19.54;98.74;100385.35;2819081;82;23723;-85
2022/10/16 08:41:54;;;;;;;7.47;6.60;;;;;;;19.47;98.21;100384.41;2865509;82;21079;-85
2022/10/16 08:46:06;;;;;;;6.70;6.00;;;;;;;19.46;99.10;100382.73;2852856;81;21038;-84
2022/10/16 08:50:15;;;;;;;6.65;5.92;;;;;;;19.45;99.49;100379.69;2833861;81;21129;-84
2022/10/16 08:54:40;;;;;;;6.92;6.25;;;;;;;19.52;100.00;100382.00;2838483;82;21082;-84
2022/10/16 08:58:40;;;;;;;8.55;7.00;;;;;;;19.60;99.87;100390.53;2828978;83;21059;-85
2022/10/16 09:03:20;;;;;;;7.90;7.10;;;;;;;19.74;98.77;100392.92;2807767;83;21085;-84
2022/10/16 09:07:38;;;;;;;6.85;6.15;;;;;;;19.83;98.09;100389.63;2774598;83;21050;-85
2022/10/16 09:11:54;;;;;;;9.63;5.55;;;;;;;19.81;97.35;100389.80;2804131;82;21663;-86
2022/10/16 09:16:30;;;;;;;7.87;4.90;;;;;;;19.79;97.77;100395.91;2817839;82;21164;-85
2022/10/16 09:20:51;;;;;;;6.12;3.77;;;;;;;19.90;98.20;100389.20;2801934;82;21010;-86
2022/10/16 09:24:56;;;;;;;5.05;4.62;;;;;;;20.08;96.44;100388.05;2816917;82;21032;-86
2022/10/16 09:28:57;;;;;;;5.42;4.92;;;;;;;20.12;95.79;100384.80;2787351;83;21026;-86
2022/10/16 09:32:59;;;;;;;7.28;5.87;;;;;;;20.21;95.82;100392.78;2785063;82;21067;-86
2022/10/16 09:37:10;;;;;;;4.75;4.35;;;;;;;20.41;96.05;100383.61;2800709;82;21052;-87
2022/10/16 09:41:21;;;;;;;4.78;4.30;;;;;;;20.61;96.33;100375.73;2798949;82;21062;-87
2022/10/16 09:45:23;;;;;;;4.08;3.67;;;;;;;20.89;96.92;100384.51;2813828;82;21640;-87
2022/10/16 09:49:27;;;;;;;4.20;3.72;;;;;;;21.08;92.59;100388.96;2749554;85;21025;-86
2022/10/16 09:53:46;;;;;;;3.35;3.05;;;;;;;21.10;90.90;100393.13;2676126;86;21133;-86
2022/10/16 09:57:54;;;;;;;3.27;3.00;;;;;;;21.36;94.53;100388.17;2629802;86;21104;-86
2022/10/16 10:01:56;;;;;;;3.20;2.90;;;;;;;21.70;92.14;100402.84;2788136;83;21046;-85
2022/10/16 10:05:57;;;;;;;4.08;2.98;;;;;;;21.96;92.41;100395.94;2746682;83;21033;-84
2022/10/16 10:09:58;;;;;;;5.58;2.85;;;;;;;22.14;88.63;100396.79;2763702;82;21025;-85
2022/10/16 10:14:23;;;;;;;2.87;2.08;;;;;;;22.23;88.22;100401.53;2803484;83;21030;-86
2022/10/16 10:18:26;;;;;;;2.62;2.40;;;;;;;22.24;86.92;100401.84;2822966;82;21094;-86
2022/10/16 10:22:44;;;;;;;5.15;3.05;;;;;;;22.37;88.05;100400.53;2797085;83;21033;-86
2022/10/16 10:27:09;;;;;;;2.55;2.35;;;;;;;22.44;85.29;100392.97;2809983;82;21154;-87
2022/10/16 10:31:52;;;;;;;2.55;2.35;;;;;;;22.54;87.90;100392.95;2802932;83;21118;-86
2022/10/16 10:36:37;;;;;;;2.50;2.30;;;;;;;22.65;85.51;100387.45;2807381;83;21055;-85
2022/10/16 10:40:56;;;;;;;3.42;2.33;;;;;;;22.95;86.41;100393.06;2734216;85;21716;-86
2022/10/16 10:45:18;;;;;;;4.05;2.92;;;;;;;23.21;81.52;100373.28;2759109;84;21947;-85
2022/10/16 10:49:43;;;;;;;2.75;2.15;;;;;;;23.61;84.20;100377.08;2724571;85;21075;-87
2022/10/16 10:54:06;;;;;;;2.40;1.95;;;;;;;23.84;81.38;100374.43;2737868;83;21067;-87
2022/10/16 10:58:25;;;;;;;2.75;2.55;;;;;;;24.02;81.66;100365.13;2710215;85;21127;-87
2022/10/16 11:02:43;;;;;;;2.50;2.20;;;;;;;24.24;79.19;100378.43;2746524;83;21096;-87
2022/10/16 11:06:59;;;;;;;2.65;2.20;;;;;;;24.32;77.54;100380.89;2669216;87;21641;-87
2022/10/16 11:11:27;;;;;;;2.77;2.58;;;;;;;24.41;77.49;100365.72;2686897;86;22189;-87
2022/10/16 11:15:38;;;;;;;2.35;2.00;;;;;;;24.44;78.58;100372.08;2686069;86;21095;-87
2022/10/16 11:19:48;;;;;;;2.55;2.40;;;;;;;24.34;77.71;100373.36;2667018;85;21037;-87
2022/10/16 11:23:57;;;;;;;3.17;1.90;;;;;;;24.36;78.92;100381.31;2724842;85;21346;-87
2022/10/16 11:28:20;;;;;;;2.35;2.10;;;;;;;24.34;80.28;100371.18;2704027;85;21077;-86
2022/10/16 11:32:36;;;;;;;2.35;2.15;;;;;;;24.35;80.22;100378.28;2672568;85;21099;-86
2022/10/16 11:36:58;;;;;;;2.10;1.70;;;;;;;24.22;78.90;100384.61;2729033;85;21040;-87
2022/10/16 11:41:13;;;;;;;1.07;0.95;;;;;;;24.04;79.58;100380.69;2727235;85;21152;-86
2022/10/16 11:45:36;;;;;;;;;;;;;;;23.97;76.98;100386.61;2714449;85;21080;-86
2022/10/16 11:49:40;;;;;;;0.95;0.85;;;;;;;23.90;74.95;100393.94;2711814;85;20106;-86
2022/10/16 11:54:38;;;;;;;0.88;0.42;;;;;;;23.84;74.95;100401.59;2667152;87;21055;-86
2022/10/16 11:59:02;;;;;;;2.15;1.95;;;;;;;23.76;75.92;100403.45;2589987;90;21110;-87
2022/10/16 12:03:33;;;;;;;2.80;2.52;;;;;;;23.65;79.75;100402.75;2591254;90;21049;-87
2022/10/16 12:07:39;;;;;;;4.75;2.25;;;;;;;23.53;81.65;100416.13;2585818;88;21019;-86
2022/10/16 12:11:41;;;;;;;4.35;2.35;;;;;;;23.37;82.70;100415.48;2576541;90;21658;-87
2022/10/16 12:15:42;;;;;;;3.58;2.67;;;;;;;23.27;82.61;100419.11;2568603;90;21093;-86
2022/10/16 12:19:43;;;;;;;2.30;2.10;;;;;;;23.23;83.75;100417.83;2591623;89;21085;-87
2022/10/16 12:23:54;;;;;;;2.83;2.17;;;;;;;23.24;84.90;100427.64;2566379;89;21086;-87
2022/10/16 12:28:02;;;;;;;2.42;2.22;;;;;;;23.24;85.22;100428.49;2583553;89;21072;-87
2022/10/16 12:32:09;;;;;;;2.70;1.72;;;;;;;23.27;84.49;100435.93;2644628;85;21018;-87
2022/10/16 12:36:19;;;;;;;1.77;1.65;;;;;;;23.29;84.20;100436.05;2694495;86;21581;-88
2022/10/16 12:40:31;;;;;;;2.30;2.10;;;;;;;23.36;84.31;100433.32;2716049;85;21145;-88
2022/10/16 12:44:35;;;;;;;2.62;2.12;;;;;;;23.41;83.46;100439.48;2755722;85;20998;-88
2022/10/16 12:48:39;;;;;;;3.00;2.67;;;;;;;23.45;83.25;100444.81;2700996;85;21070;-87
2022/10/16 12:52:40;;;;;;;6.22;2.95;;;;;;;23.49;83.06;100437.41;2729155;84;21414;-87
2022/10/16 12:56:50;;;;;;;3.77;3.22;;;;;;;23.55;83.03;100438.47;2730985;84;21081;-87
2022/10/16 13:00:59;;;;;;;3.00;2.67;;;;;;;23.58;83.78;100446.70;2746163;85;21566;-86
2022/10/16 13:05:34;;;;;;;2.70;2.50;;;;;;;23.59;83.87;100449.75;2757615;84;21013;-88
2022/10/16 13:10:04;;;;;;;3.45;2.72;;;;;;;23.68;84.21;100440.34;2709184;86;21064;-85
2022/10/16 13:14:30;;;;;;;3.35;2.72;;;;;;;23.75;83.67;100451.20;2703769;86;21169;-85
2022/10/16 13:19:12;;;;;;;7.87;2.90;;;;;;;23.89;84.21;100439.81;2702082;86;21070;-85
2022/10/16 13:23:36;;;;;;;2.62;2.42;;;;;;;24.07;84.28;100433.23;2559907;91;21094;-85
2022/10/16 13:28:01;;;;;;;3.58;3.22;;;;;;;24.17;81.87;100444.17;2575933;90;21038;-85
2022/10/16 13:32:09;;;;;;;4.53;3.10;;;;;;;24.01;81.62;100446.80;2559215;90;21806;-85
2022/10/16 13:36:27;;;;;;;3.42;2.85;;;;;;;23.87;81.12;100459.02;2568508;91;21128;-85
2022/10/16 13:40:28;;;;;;;4.10;2.87;;;;;;;23.60;79.40;100465.81;2547085;92;21123;-85
2022/10/16 13:44:36;;;;;;;5.53;2.62;;;;;;;23.35;80.68;100477.78;2564998;90;21083;-85
2022/10/16 13:48:37;;;;;;;3.58;3.20;;;;;;;23.20;81.89;100486.93;2566741;91;21073;-86
2022/10/16 13:52:39;;;;;;;3.65;2.80;;;;;;;23.13;82.47;100491.48;2525376;91;21105;-85
2022/10/16 13:56:40;;;;;;;3.87;2.67;;;;;;;23.17;86.01;100486.49;2538058;92;21175;-85
2022/10/16 14:00:59;;;;;;;3.95;3.62;;;;;;;23.19;84.64;100483.91;2688656;85;21027;-85
2022/10/16 14:05:03;;;;;;;3.72;3.00;;;;;;;23.19;85.18;100482.55;2691716;87;21430;-85
2022/10/16 14:09:11;;;;;;;3.77;3.25;;;;;;;23.02;84.94;100475.81;2740539;85;21024;-85
2022/10/16 14:13:17;;;;;;;2.72;2.08;;;;;;;22.99;85.19;100481.63;2741975;86;21087;-85
2022/10/16 14:17:22;;;;;;;2.62;2.40;;;;;;;23.00;85.25;100494.17;2688552;86;21094;-85
2022/10/16 14:21:25;;;;;;;2.42;2.22;;;;;;;22.86;85.83;100491.40;2668769;86;21063;-85
2022/10/16 14:25:32;;;;;;;3.05;2.52;;;;;;;22.79;86.07;100500.00;2686959;86;21067;-85
2022/10/16 14:29:35;;;;;;;2.25;1.95;;;;;;;22.80;86.50;100504.42;2691689;86;21060;-85
2022/10/16 14:33:36;;;;;;;4.62;1.72;;;;;;;22.80;86.21;100511.20;2687982;86;21643;-85
2022/10/16 14:37:38;;;;;;;2.15;1.95;;;;;;;22.81;87.05;100504.73;2699688;86;21458;-85
2022/10/16 14:41:46;;;;;;;3.42;2.98;;;;;;;22.75;86.53;100511.80;2700681;86;21011;-85
2022/10/16 14:45:54;;;;;;;4.35;3.95;;;;;;;22.74;87.12;100521.47;2689624;86;21154;-85
2022/10/16 14:49:58;;;;;;;3.67;3.30;;;;;;;22.62;88.27;100512.56;2699499;86;21063;-85
2022/10/16 14:53:58;;;;;;;4.53;3.12;;;;;;;22.58;88.57;100522.64;2695533;86;21070;-85
2022/10/16 14:57:59;;;;;;;5.35;3.58;;;;;;;22.55;88.78;100511.67;2744727;83;21557;-85
2022/10/16 15:02:34;;;;;;;3.25;2.95;;;;;;;22.56;88.84;100521.48;2775494;82;21058;-85
2022/10/16 15:06:36;;;;;;;8.27;5.33;;;;;;;22.44;89.02;100517.64;2795828;83;21301;-85
2022/10/16 15:10:43;;;;;;;12.30;8.78;;;;;;;22.33;89.46;100514.43;2804857;82;20991;-85
2022/10/16 15:14:44;;;;;;;9.75;6.83;;;;;;;22.26;89.77;100518.98;2808519;83;21003;-85
2022/10/16 15:18:45;;;;;;;7.25;5.37;;;;;;;22.17;90.77;100518.28;2814033;82;21031;-85
2022/10/16 15:22:46;;;;;;;8.63;7.00;;;;;;;22.01;91.56;100517.22;2810862;82;21034;-85
2022/10/16 15:26:48;;;;;;;10.23;6.60;;;;;;;21.86;92.62;100524.08;2771540;84;21341;-85
2022/10/16 15:30:52;;;;;;;16.55;11.88;;;;;;;21.74;92.94;100531.36;2797796;82;21081;-85
2022/10/16 15:34:53;;;;;;;23.57;16.27;;;;;;;21.68;93.27;100532.96;2802933;83;21030;-85
2022/10/16 15:38:56;;;;;;;15.58;11.22;;;;;;;21.66;93.22;100539.09;2814566;82;21152;-85
2022/10/16 15:42:57;;;;;;;13.28;9.88;;;;;;;21.64;92.94;100538.41;2817293;83;21082;-85
2022/10/16 15:46:58;;;;;;;10.18;8.60;;;;;;;21.60;92.13;100547.11;2804347;83;21093;-85
2022/10/16 15:51:04;;;;;;;6.55;4.83;;;;;;;21.53;91.24;100547.88;2807751;82;21101;-85
2022/10/16 15:55:11;;;;;;;6.70;3.98;;;;;;;21.44;91.06;100551.75;2805720;82;21122;-85
2022/10/16 15:59:12;;;;;;;5.15;3.45;;;;;;;21.36;90.35;100561.32;2805160;83;20996;-85
2022/10/16 16:03:13;;;;;;;6.62;3.70;;;;;;;21.30;89.80;100567.50;2812259;82;21015;-85
2022/10/16 16:07:14;;;;;;;15.43;8.73;;;;;;;21.22;89.76;100568.45;2755231;83;21044;-85
2022/10/16 16:11:17;;;;;;;11.10;8.38;;;;;;;21.14;89.28;100578.86;2810275;83;21031;-85
2022/10/16 16:15:22;;;;;;;16.55;14.03;;;;;;;21.02;89.27;100585.26;2788229;83;21058;-85
2022/10/16 16:19:23;;;;;;;36.80;24.40;;;;;;;20.87;89.06;100587.98;2816327;82;21026;-85
2022/10/16 16:23:24;;;;;;;26.20;21.07;;;;;;;20.73;89.51;100590.13;2805991;82;21034;-85
2022/10/16 16:27:25;;;;;;;34.30;21.37;;;;;;;20.63;89.83;100592.56;2808773;82;20983;-85
2022/10/16 16:31:29;;;;;;;28.70;19.90;;;;;;;20.45;91.08;100604.27;2800226;83;21070;-85
2022/10/16 16:35:30;;;;;;;36.15;25.05;;;;;;;20.00;95.43;100611.70;2812661;83;21062;-85
2022/10/16 16:39:31;;;;;;;26.93;18.15;;;;;;;19.88;94.84;100627.97;2692820;82;21039;-85
2022/10/16 16:43:32;;;;;;;16.97;15.03;;;;;;;19.89;95.05;100626.42;2802454;82;21030;-85
2022/10/16 16:47:33;;;;;;;17.42;14.28;;;;;;;19.92;94.87;100632.02;2655026;86;21029;-85
2022/10/16 16:51:34;;;;;;;17.20;13.48;;;;;;;19.93;94.13;100641.27;2801227;83;21740;-85
2022/10/16 16:55:35;;;;;;;12.75;10.75;;;;;;;19.83;94.01;100650.91;2799275;82;21015;-85
2022/10/16 16:59:37;;;;;;;8.23;6.90;;;;;;;19.74;94.37;100646.60;2809447;83;21035;-85
2022/10/16 17:03:38;;;;;;;7.03;6.33;;;;;;;19.68;94.84;100658.11;2815219;83;21079;-85
2022/10/16 17:07:40;;;;;;;7.80;6.28;;;;;;;19.69;94.87;100664.66;2805858;83;21081;-85
2022/10/16 17:11:44;;;;;;;11.68;7.42;;;;;;;19.69;94.74;100670.06;2778691;82;20983;-85
2022/10/16 17:15:50;;;;;;;19.67;15.23;;;;;;;19.70;94.69;100680.36;2714624;85;21090;-85
2022/10/16 17:19:52;;;;;;;28.98;22.70;;;;;;;19.65;94.64;100682.23;2701371;86;21059;-85
2022/10/16 17:23:53;;;;;;;21.45;12.82;;;;;;;19.59;95.04;100690.19;2688754;86;21063;-85
2022/10/16 17:27:54;;;;;;;15.35;9.90;;;;;;;19.42;95.08;100694.30;2698822;86;21157;-85
2022/10/16 17:31:56;;;;;;;12.55;10.23;;;;;;;19.26;95.51;100704.64;2693147;86;21055;-85
2022/10/16 17:35:58;;;;;;;11.65;9.45;;;;;;;19.13;96.25;100698.44;2697231;86;21026;-86
2022/10/16 17:39:59;;;;;;;12.05;8.78;;;;;;;19.01;97.59;100712.79;2706193;86;21043;-85
2022/10/16 17:44:01;;;;;;;10.75;8.43;;;;;;;18.96;99.69;100713.27;2706675;85;21391;-85
2022/10/16 17:48:02;;;;;;;11.12;6.87;;;;;;;18.88;100.00;100711.94;2693025;86;21070;-85
2022/10/16 17:52:04;;;;;;;7.10;5.50;;;;;;;18.81;100.00;100716.30;2689346;86;21083;-85
2022/10/16 17:56:12;;;;;;;6.65;5.47;;;;;;;18.82;100.00;100711.25;2698280;86;21614;-85
2022/10/16 18:00:14;;;;;;;8.28;6.67;;;;;;;18.88;100.00;100714.63;2701503;85;21033;-85
2022/10/16 18:04:16;;;;;;;9.08;8.13;;;;;;;18.93;100.00;100714.95;2696299;86;21062;-85
2022/10/16 18:08:17;;;;;;;13.95;10.43;;;;;;;18.98;100.00;100723.39;2698139;86;21043;-85
2022/10/16 18:12:19;;;;;;;11.48;8.83;;;;;;;19.12;100.00;100721.02;2701373;86;21104;-85
2022/10/16 18:16:20;;;;;;;12.47;8.75;;;;;;;19.22;100.00;100724.36;2729077;84;21461;-85
2022/10/16 18:20:21;;;;;;;12.43;9.95;;;;;;;19.29;100.00;100734.48;2710173;85;21061;-85
2022/10/16 18:51:32;;;;;;;15.98;12.05;;;;;;;19.13;100.00;100768.55;2810764;82;21055;-93
2022/10/16 18:55:33;;;;;;;14.98;13.10;;;;;;;19.10;100.00;100782.37;2855623;81;21059;-92
2022/10/16 18:59:34;;;;;;;14.47;12.33;;;;;;;19.06;100.00;100784.55;2812476;82;21054;-91
2022/10/16 19:03:37;;;;;;;15.13;12.55;;;;;;;19.04;100.00;100791.11;2883591;80;21109;-91
2022/10/16 19:07:38;;;;;;;19.50;14.53;;;;;;;19.06;100.00;100803.92;2808458;82;21061;-88
2022/10/16 19:11:40;;;;;;;20.10;16.42;;;;;;;19.08;100.00;100803.27;2846794;82;21036;-89
2022/10/16 19:15:42;;;;;;;19.95;15.65;;;;;;;19.07;100.00;100801.59;2837993;81;21028;-90
2022/10/16 19:19:43;;;;;;;23.67;17.27;;;;;;;19.04;100.00;100814.89;2827512;82;21081;-90